Time;durP1;ratioP1;P1;durP2;ratioP2;P2;SDS_P1;SDS_P2;PMS_P1;PMS_P2;Temp;Humidity;BMP_temperature;BMP_pressure;BME280_temperature;BME280_humidity;BME280_pressure;Samples;Min_cycle;Max_cycle;Signal;HPM_P1;HPM_P2
2022/08/12 00:42:59;;;;;;;3.38;1.35;;;26.70;60.80;;;;;;5033009;28;20498;-27
2022/08/12 00:45:24;;;;;;;1.75;1.25;;;26.70;60.80;;;;;;5032799;28;20029;-27
2022/08/12 00:47:52;;;;;;;3.35;1.25;;;26.70;60.80;;;;;;5032832;28;20104;-27
2022/08/12 00:50:20;;;;;;;1.75;1.15;;;26.60;60.70;;;;;;5032293;28;20084;-27
2022/08/12 00:52:49;;;;;;;2.20;1.35;;;26.60;60.70;;;;;;5032790;28;20095;-27
2022/08/12 00:55:16;;;;;;;2.47;1.25;;;26.60;60.70;;;;;;5032627;28;20060;-28
2022/08/12 00:57:48;;;;;;;3.85;1.13;;;26.60;60.70;;;;;;5032661;28;20029;-27
2022/08/12 01:00:21;;;;;;;2.33;1.35;;;26.60;60.70;;;;;;5032552;28;20430;-28
2022/08/12 01:02:57;;;;;;;3.13;1.40;;;26.60;60.70;;;;;;5033990;28;20108;-26
2022/08/12 01:13:46;;;;;;;2.28;1.20;;;26.60;60.70;;;;;;5040883;28;20032;-26
2022/08/12 01:16:21;;;;;;;2.13;1.30;;;26.60;60.80;;;;;;5033591;28;20489;-26
2022/08/12 01:18:50;;;;;;;4.45;1.20;;;26.60;60.70;;;;;;5032077;28;20545;-26
2022/08/12 01:21:27;;;;;;;2.28;1.30;;;26.50;60.60;;;;;;5032008;28;20071;-27
2022/08/12 01:24:37;;;;;;;2.45;1.48;;;26.60;60.70;;;;;;5032133;28;20447;-26
2022/08/12 01:27:08;;;;;;;1.50;1.10;;;26.50;60.70;;;;;;5032098;28;20021;-27
2022/08/12 01:29:40;;;;;;;5.20;1.50;;;26.50;60.60;;;;;;5031916;28;20017;-26
2022/08/12 01:32:11;;;;;;;1.52;1.27;;;26.50;60.70;;;;;;5031897;28;20018;-26
2022/08/12 01:34:40;;;;;;;4.63;1.40;;;26.50;60.60;;;;;;5032055;28;20029;-26
2022/08/12 01:37:07;;;;;;;4.68;1.38;;;26.50;60.60;;;;;;5032011;28;20025;-27
2022/08/12 01:39:41;;;;;;;1.65;1.23;;;26.50;60.70;;;;;;5031806;28;20029;-26
2022/08/12 01:42:07;;;;;;;;;;;26.50;60.60;;;;;;5032178;28;20064;-26
2022/08/12 01:44:35;;;;;;;1.85;1.20;;;26.50;60.70;;;;;;5031880;28;19905;-27
2022/08/12 01:47:22;;;;;;;2.10;1.40;;;26.40;60.60;;;;;;5031950;28;20032;-27
2022/08/12 01:50:15;;;;;;;2.28;1.17;;;26.50;60.70;;;;;;5031577;28;20029;-26
2022/08/12 01:52:43;;;;;;;2.92;1.27;;;26.40;60.70;;;;;;5028368;28;20068;-24
2022/08/12 01:55:12;;;;;;;1.50;1.00;;;26.50;60.70;;;;;;5031716;28;20363;-26
2022/08/12 01:57:46;;;;;;;2.22;1.23;;;26.40;60.60;;;;;;5031750;28;20091;-26
2022/08/12 02:00:14;;;;;;;2.00;1.40;;;26.40;60.70;;;;;;5031533;28;20169;-26
2022/08/12 02:02:45;;;;;;;3.10;1.27;;;26.40;60.60;;;;;;5032042;28;20029;-26
2022/08/12 02:11:29;;;;;;;1.80;1.20;;;26.40;60.70;;;;;;5031897;28;20029;-27
2022/08/12 02:14:10;;;;;;;2.30;1.17;;;26.40;60.70;;;;;;5031687;28;20302;-26
2022/08/12 02:16:49;;;;;;;1.48;1.20;;;26.40;60.70;;;;;;5031679;28;20482;-27
2022/08/12 02:19:30;;;;;;;6.68;1.52;;;26.40;60.70;;;;;;5033474;28;20509;-27
2022/08/12 02:22:26;;;;;;;3.28;1.10;;;26.40;60.80;;;;;;5035798;28;20056;-26
2022/08/12 02:24:56;;;;;;;2.33;1.30;;;26.30;60.70;;;;;;5035444;28;20100;-26
2022/08/12 02:27:26;;;;;;;2.95;1.38;;;26.40;60.80;;;;;;5035649;28;20125;-26
2022/08/12 02:29:52;;;;;;;2.15;1.30;;;26.30;60.70;;;;;;5035181;28;20017;-27
2022/08/12 02:32:17;;;;;;;2.05;1.10;;;26.30;61.50;;;;;;5035162;28;20048;-27
2022/08/12 02:34:44;;;;;;;2.47;1.33;;;26.30;60.80;;;;;;5035332;28;20381;-26
2022/08/12 02:37:14;;;;;;;1.63;1.20;;;26.30;60.80;;;;;;5035246;28;20022;-27
2022/08/12 02:39:46;;;;;;;3.28;1.13;;;26.30;60.90;;;;;;5035085;28;20056;-27
2022/08/12 02:42:15;;;;;;;3.42;1.27;;;26.30;60.80;;;;;;5034932;28;20029;-26
2022/08/12 02:44:44;;;;;;;2.45;1.20;;;26.30;60.80;;;;;;5035160;28;20044;-26
2022/08/12 02:47:13;;;;;;;2.20;1.40;;;26.30;60.80;;;;;;5034959;28;20024;-26
2022/08/12 02:49:45;;;;;;;1.60;1.27;;;26.30;60.80;;;;;;5034932;28;20022;-27
2022/08/12 02:52:13;;;;;;;1.75;1.38;;;26.30;60.80;;;;;;5034975;28;20100;-26
2022/08/12 02:54:42;;;;;;;1.25;1.00;;;26.30;60.80;;;;;;5035302;28;20025;-24
2022/08/12 02:57:12;;;;;;;2.22;1.38;;;26.30;60.80;;;;;;5034977;28;20021;-27
2022/08/12 02:59:40;;;;;;;2.58;1.30;;;26.30;60.80;;;;;;5034603;28;20022;-26
2022/08/12 03:02:11;;;;;;;3.22;1.30;;;26.30;60.80;;;;;;5034688;28;20493;-27
2022/08/12 03:04:46;;;;;;;1.90;1.33;;;26.20;60.80;;;;;;5034777;28;20067;-26
2022/08/12 03:07:24;;;;;;;3.10;1.30;;;26.30;60.80;;;;;;5034645;28;20026;-26
2022/08/12 03:09:55;;;;;;;1.65;1.25;;;26.30;60.90;;;;;;5034499;28;20434;-26
2022/08/12 03:12:23;;;;;;;2.35;1.10;;;26.30;60.90;;;;;;5034759;28;20036;-26
2022/08/12 03:14:51;;;;;;;2.35;1.25;;;26.20;60.80;;;;;;5034585;28;20033;-26
2022/08/12 03:17:54;;;;;;;2.35;1.35;;;26.20;60.80;;;;;;5034508;28;20029;-26
2022/08/12 03:20:21;;;;;;;1.45;1.02;;;26.20;60.80;;;;;;5034087;28;20120;-26
2022/08/12 03:22:48;;;;;;;2.95;1.20;;;26.20;60.90;;;;;;5034305;28;20108;-26
2022/08/12 03:25:17;;;;;;;4.78;1.48;;;26.20;60.90;;;;;;5034353;28;20116;-26
2022/08/12 03:27:48;;;;;;;2.20;1.40;;;26.20;60.90;;;;;;5034284;28;20021;-27
2022/08/12 03:30:18;;;;;;;2.33;1.30;;;26.20;60.90;;;;;;5033749;28;20064;-26
2022/08/12 03:32:47;;;;;;;4.30;1.20;;;26.20;60.90;;;;;;5034213;28;20499;-26
2022/08/12 03:35:25;;;;;;;3.45;1.23;;;26.20;61.00;;;;;;5034215;28;20112;-26
2022/08/12 03:37:55;;;;;;;2.10;1.20;;;26.10;60.90;;;;;;5034167;28;20026;-26
2022/08/12 04:02:33;;;;;;;4.82;1.52;;;26.10;61.10;;;;;;5033757;28;20036;-26
2022/08/12 04:05:00;;;;;;;4.18;1.90;;;26.10;61.10;;;;;;5033609;28;20109;-27
2022/08/12 04:07:26;;;;;;;5.45;1.60;;;26.10;61.10;;;;;;5033588;28;20076;-26
2022/08/12 04:09:53;;;;;;;3.47;1.50;;;26.00;61.00;;;;;;5033360;28;20051;-26
2022/08/12 04:15:05;;;;;;;2.25;1.50;;;26.00;61.10;;;;;;5033712;28;20079;-24
2022/08/12 04:17:32;;;;;;;3.20;1.40;;;26.00;61.00;;;;;;5033325;28;20450;-26
2022/08/12 04:19:58;;;;;;;4.35;1.60;;;26.00;61.00;;;;;;5033027;28;20033;-27
2022/08/12 04:22:29;;;;;;;2.83;1.40;;;26.00;61.80;;;;;;5033343;28;20036;-26
2022/08/12 04:24:59;;;;;;;4.00;1.27;;;26.00;61.10;;;;;;5033156;28;20033;-27
2022/08/12 04:27:27;;;;;;;3.67;1.40;;;26.00;61.10;;;;;;5033186;28;20048;-27
2022/08/12 04:29:53;;;;;;;2.13;1.30;;;26.00;61.10;;;;;;5032929;28;20021;-27
2022/08/12 04:32:19;;;;;;;2.78;1.27;;;25.90;61.00;;;;;;5033030;28;20410;-26
2022/08/12 04:34:44;;;;;;;1.50;1.25;;;26.00;61.20;;;;;;5033112;28;20028;-27
2022/08/12 04:37:11;;;;;;;1.77;1.20;;;25.90;61.10;;;;;;5033004;28;20102;-27
2022/08/12 04:39:38;;;;;;;1.90;1.40;;;26.00;61.20;;;;;;5032729;28;20033;-27
2022/08/12 04:42:03;;;;;;;1.98;1.33;;;25.90;61.20;;;;;;5031952;28;20025;-27
2022/08/12 04:44:31;;;;;;;1.73;1.23;;;25.90;61.20;;;;;;5032885;28;20110;-26
2022/08/12 04:46:57;;;;;;;2.50;1.40;;;25.90;61.20;;;;;;5032914;28;20032;-26
2022/08/12 04:49:24;;;;;;;3.28;1.40;;;25.90;61.30;;;;;;5032472;28;20037;-27
2022/08/12 04:51:50;;;;;;;4.03;1.45;;;25.90;61.20;;;;;;5032514;28;20033;-27
2022/08/12 04:54:16;;;;;;;5.20;1.58;;;25.90;61.30;;;;;;5015137;28;20040;-26
2022/08/12 04:56:43;;;;;;;1.50;1.30;;;25.80;61.20;;;;;;5032672;28;20025;-26
2022/08/12 04:59:09;;;;;;;1.90;1.27;;;25.80;61.30;;;;;;5032409;28;20036;-26
2022/08/12 05:01:36;;;;;;;3.50;1.38;;;25.80;61.30;;;;;;5032421;28;20099;-27
2022/08/12 05:04:02;;;;;;;2.35;1.33;;;25.80;61.30;;;;;;5032402;28;20064;-26
2022/08/12 05:06:28;;;;;;;3.17;1.30;;;25.80;61.40;;;;;;5032489;28;20028;-25
2022/08/12 05:08:55;;;;;;;3.20;1.25;;;25.80;61.40;;;;;;5032232;28;20017;-26
2022/08/12 05:11:24;;;;;;;1.88;1.40;;;25.80;61.40;;;;;;5032242;28;20036;-27
2022/08/12 05:13:56;;;;;;;3.75;1.27;;;25.80;61.50;;;;;;5032382;28;20493;-26
2022/08/12 05:16:22;;;;;;;3.85;1.48;;;25.80;61.50;;;;;;5032269;28;20044;-26
2022/08/12 05:18:48;;;;;;;4.63;1.25;;;25.80;61.50;;;;;;5032063;28;20041;-27
2022/08/12 05:21:13;;;;;;;3.65;1.38;;;25.80;61.50;;;;;;5031854;28;20018;-27
2022/08/12 05:23:39;;;;;;;4.75;1.48;;;25.80;61.60;;;;;;5032241;28;20026;-27
2022/08/12 05:26:05;;;;;;;3.15;1.50;;;25.80;61.60;;;;;;5032250;28;20375;-27
2022/08/12 05:28:32;;;;;;;3.40;1.45;;;25.80;61.70;;;;;;5032063;28;20097;-27
2022/08/12 05:31:00;;;;;;;2.10;1.30;;;25.70;61.60;;;;;;5031987;28;20056;-26
2022/08/12 05:33:34;;;;;;;2.22;1.33;;;25.70;61.60;;;;;;5032074;28;20105;-26
2022/08/12 05:36:00;;;;;;;2.65;1.50;;;25.70;61.70;;;;;;5032061;28;20367;-27
2022/08/12 05:41:18;;;;;;;2.15;1.45;;;25.70;61.80;;;;;;5031952;28;20317;-27
2022/08/12 05:43:49;;;;;;;2.00;1.45;;;25.70;61.80;;;;;;5032004;28;20033;-27
2022/08/12 05:46:15;;;;;;;2.05;1.40;;;25.70;61.90;;;;;;5031825;28;20101;-27
2022/08/12 05:48:41;;;;;;;2.78;1.20;;;25.70;62.00;;;;;;5031903;28;20438;-26
2022/08/12 05:51:09;;;;;;;2.97;1.67;;;25.70;62.00;;;;;;5053114;22;20120;-24
2022/08/12 05:53:39;;;;;;;7.63;1.80;;;25.40;62.40;;;;;;5031526;28;20417;-24
2022/08/12 05:56:05;;;;;;;11.95;1.70;;;24.60;63.80;;;;;;5031997;28;20471;-24
2022/08/12 05:58:31;;;;;;;4.70;1.55;;;24.10;65.20;;;;;;5013908;28;20025;-24
2022/08/12 06:00:58;;;;;;;3.80;1.92;;;24.10;65.70;;;;;;5031994;28;20048;-24
2022/08/12 06:03:24;;;;;;;3.38;1.63;;;24.30;65.50;;;;;;5031911;28;20120;-24
2022/08/12 06:05:50;;;;;;;5.18;1.70;;;24.50;65.10;;;;;;5031815;28;20049;-24
2022/08/12 06:08:18;;;;;;;5.05;1.73;;;24.70;64.60;;;;;;5031931;28;20072;-23
2022/08/12 06:10:48;;;;;;;4.72;1.40;;;24.80;64.30;;;;;;5031629;28;20046;-24
2022/08/12 06:13:14;;;;;;;4.53;1.48;;;24.90;63.90;;;;;;5031964;28;20033;-24
2022/08/12 06:15:40;;;;;;;3.22;1.50;;;25.10;63.80;;;;;;5031824;28;20082;-24
2022/08/12 06:18:10;;;;;;;6.70;1.77;;;25.10;63.60;;;;;;5031773;28;20398;-24
2022/08/12 06:20:37;;;;;;;6.00;1.48;;;25.20;63.50;;;;;;5031410;28;20033;-24
2022/08/12 06:23:03;;;;;;;5.43;1.52;;;25.20;63.40;;;;;;5031881;28;20026;-24
2022/08/12 06:25:29;;;;;;;4.70;1.58;;;25.30;63.40;;;;;;5031967;28;20390;-24
2022/08/12 06:27:57;;;;;;;1.90;1.33;;;25.30;63.30;;;;;;5031842;28;20308;-24
2022/08/12 06:30:24;;;;;;;4.50;1.88;;;25.30;63.40;;;;;;5031525;28;20022;-24
2022/08/12 06:32:53;;;;;;;4.10;1.42;;;25.30;63.30;;;;;;5031629;28;20030;-24
2022/08/12 06:35:19;;;;;;;4.68;1.60;;;25.40;63.30;;;;;;5031502;28;20479;-24
2022/08/12 06:37:51;;;;;;;2.17;1.48;;;25.40;64.10;;;;;;5032549;28;20489;-24
2022/08/12 06:43:04;;;;;;;3.88;1.50;;;25.50;63.20;;;;;;4981740;28;20069;-24
2022/08/12 06:45:30;;;;;;;4.00;1.40;;;25.50;63.30;;;;;;5032136;28;20026;-24
2022/08/12 06:47:58;;;;;;;3.88;1.40;;;25.50;63.20;;;;;;5031470;28;20030;-24
2022/08/12 06:50:25;;;;;;;3.42;1.45;;;25.50;63.20;;;;;;5031023;28;20083;-24
2022/08/12 06:52:51;;;;;;;3.50;1.55;;;25.50;63.20;;;;;;5031562;28;20537;-24
2022/08/12 06:55:19;;;;;;;2.75;1.50;;;25.50;63.20;;;;;;5031527;28;20029;-24
2022/08/12 06:58:02;;;;;;;2.38;1.42;;;25.60;63.20;;;;;;5031620;28;20036;-24
2022/08/12 07:00:32;;;;;;;2.03;1.30;;;25.50;63.20;;;;;;5031246;28;20093;-24
2022/08/12 07:02:59;;;;;;;2.40;1.30;;;25.60;63.30;;;;;;5031812;28;20028;-24
2022/08/12 07:05:25;;;;;;;2.08;1.27;;;25.60;63.30;;;;;;5033534;28;20025;-24
2022/08/12 07:07:57;;;;;;;4.22;1.80;;;25.60;63.30;;;;;;5035073;28;20052;-24
2022/08/12 07:10:23;;;;;;;4.07;1.42;;;25.60;63.20;;;;;;5034809;28;20026;-24
2022/08/12 07:12:53;;;;;;;2.70;1.40;;;25.60;63.30;;;;;;5035370;28;20025;-24
2022/08/12 07:15:24;;;;;;;8.15;1.55;;;25.70;63.30;;;;;;5035106;28;20053;-24
2022/08/12 07:20:30;;;;;;;7.45;1.90;;;25.20;65.60;;;;;;5035004;28;20064;-24
2022/08/12 07:23:00;;;;;;;11.45;1.92;;;25.20;65.50;;;;;;5034697;28;20090;-24
2022/08/12 07:25:31;;;;;;;3.42;1.42;;;25.30;65.40;;;;;;5034586;28;20067;-24
2022/08/12 07:28:13;;;;;;;6.25;1.63;;;25.40;65.20;;;;;;5034602;28;20022;-24
2022/08/12 07:30:40;;;;;;;7.68;1.88;;;25.50;65.00;;;;;;5034199;28;20037;-24
2022/08/12 07:33:08;;;;;;;6.13;1.70;;;25.50;64.80;;;;;;5034512;28;20096;-24
2022/08/12 07:35:42;;;;;;;4.15;1.88;;;25.60;64.70;;;;;;5034296;28;20036;-24
2022/08/12 07:38:23;;;;;;;;;;;25.60;64.70;;;;;;5034881;28;20123;-24
2022/08/12 07:40:53;;;;;;;20.75;3.25;;;25.40;63.80;;;;;;5034282;28;19943;-24
2022/08/12 07:43:20;;;;;;;33.17;3.85;;;25.30;64.50;;;;;;5034167;28;20033;-24
2022/08/12 07:45:46;;;;;;;28.50;3.67;;;25.30;65.30;;;;;;5034543;28;20040;-24
2022/08/12 07:48:12;;;;;;;26.90;3.20;;;25.40;64.40;;;;;;5034387;28;20030;-24
2022/08/12 07:50:37;;;;;;;24.55;3.20;;;25.50;64.30;;;;;;5015881;28;20094;-24
2022/08/12 07:53:03;;;;;;;21.33;3.17;;;25.50;64.10;;;;;;5034025;28;20462;-24
2022/08/12 07:55:29;;;;;;;22.92;2.72;;;25.60;64.00;;;;;;5016299;28;20036;-23
2022/08/12 07:57:58;;;;;;;13.77;2.47;;;25.60;63.90;;;;;;5033987;28;20052;-23
2022/08/12 08:00:25;;;;;;;14.02;2.38;;;25.70;63.80;;;;;;5033554;28;20382;-24
2022/08/12 08:02:53;;;;;;;15.98;2.67;;;25.80;63.80;;;;;;5033813;28;20026;-24
2022/08/12 08:05:20;;;;;;;13.10;2.28;;;25.80;63.70;;;;;;5033800;28;20051;-24
2022/08/12 08:07:45;;;;;;;12.52;2.28;;;25.80;63.60;;;;;;5033601;28;20075;-24
2022/08/12 08:10:12;;;;;;;16.30;2.83;;;25.90;63.60;;;;;;5033427;28;20417;-24
2022/08/12 08:12:53;;;;;;;12.65;2.28;;;25.90;63.70;;;;;;5033634;28;20382;-24
2022/08/12 08:15:22;;;;;;;15.07;2.22;;;25.90;63.50;;;;;;5015502;28;20057;-24
2022/08/12 08:18:01;;;;;;;12.82;2.50;;;26.00;63.60;;;;;;5032763;28;20442;-25
2022/08/12 08:20:32;;;;;;;7.47;2.10;;;26.00;63.50;;;;;;5033432;28;20048;-24
2022/08/12 08:23:04;;;;;;;13.40;2.30;;;26.00;63.50;;;;;;5033463;28;20076;-25
2022/08/12 08:25:30;;;;;;;12.57;1.92;;;26.00;63.50;;;;;;5033464;28;20437;-24
2022/08/12 08:28:00;;;;;;;13.88;2.20;;;26.10;63.50;;;;;;5033596;28;20067;-24
2022/08/12 08:30:28;;;;;;;11.23;2.08;;;26.10;63.70;;;;;;5033035;28;20037;-24
2022/08/12 08:32:55;;;;;;;9.93;2.20;;;26.10;63.50;;;;;;5033314;28;20498;-24
2022/08/12 08:35:22;;;;;;;7.53;2.00;;;26.10;63.50;;;;;;5015808;28;20076;-25
2022/08/12 08:37:49;;;;;;;11.48;2.17;;;26.10;63.40;;;;;;5015869;28;20104;-24
2022/08/12 08:42:59;;;;;;;2.22;1.33;;;26.10;63.40;;;;;;5033180;28;20612;-24
2022/08/12 08:45:27;;;;;;;9.13;1.80;;;26.10;63.40;;;;;;5032790;28;20025;-24
2022/08/12 08:47:53;;;;;;;9.50;2.10;;;26.20;63.50;;;;;;5032993;28;20105;-24
2022/08/12 08:50:19;;;;;;;4.00;1.50;;;26.10;63.40;;;;;;5032627;28;20455;-24
2022/08/12 08:52:45;;;;;;;6.65;2.00;;;26.10;63.50;;;;;;5033380;28;20056;-24
2022/08/12 08:55:14;;;;;;;4.32;1.80;;;26.20;64.40;;;;;;5032739;28;20470;-25
2022/08/12 08:57:48;;;;;;;5.72;1.77;;;26.10;63.50;;;;;;5032776;28;20026;-24
2022/08/12 09:00:16;;;;;;;4.55;1.50;;;26.20;63.60;;;;;;5032545;28;20032;-24
2022/08/12 09:02:42;;;;;;;4.90;2.05;;;26.20;63.50;;;;;;5032644;28;20112;-24
2022/08/12 09:05:08;;;;;;;7.05;1.92;;;26.20;63.50;;;;;;5032683;28;20021;-24
2022/08/12 09:07:47;;;;;;;7.78;1.60;;;26.20;63.50;;;;;;5032765;28;20021;-24
2022/08/12 09:10:16;;;;;;;8.20;1.75;;;26.20;63.40;;;;;;5032128;28;20033;-24
2022/08/12 09:15:35;;;;;;;5.32;2.10;;;26.30;63.50;;;;;;5032923;28;20108;-24
2022/08/12 09:18:04;;;;;;;5.03;1.67;;;26.30;63.50;;;;;;5032563;28;20460;-24
2022/08/12 09:20:32;;;;;;;4.65;1.80;;;26.20;63.40;;;;;;5032137;28;20045;-25
2022/08/12 09:23:00;;;;;;;5.20;1.75;;;26.20;63.40;;;;;;5032636;28;20024;-25
2022/08/12 09:25:27;;;;;;;4.63;1.48;;;26.30;63.40;;;;;;5032291;28;20053;-24
2022/08/12 09:27:54;;;;;;;4.45;1.70;;;26.30;63.40;;;;;;5031920;28;20025;-24
2022/08/12 09:30:21;;;;;;;4.40;1.60;;;26.30;63.30;;;;;;5031993;28;20022;-24
2022/08/12 09:32:51;;;;;;;6.60;1.55;;;26.30;63.30;;;;;;5032200;28;20021;-24
2022/08/12 09:35:23;;;;;;;4.90;1.40;;;26.30;63.30;;;;;;5032091;28;20075;-24
2022/08/12 09:37:52;;;;;;;5.82;1.75;;;26.30;63.30;;;;;;5032365;28;20025;-24
2022/08/12 09:40:19;;;;;;;4.90;1.23;;;26.30;63.30;;;;;;5031945;28;20030;-24
2022/08/12 09:45:31;;;;;;;7.78;1.58;;;26.40;63.20;;;;;;5032447;28;20118;-24
2022/08/12 09:47:58;;;;;;;4.63;1.33;;;26.40;63.10;;;;;;5031879;28;20026;-24
2022/08/12 09:50:24;;;;;;;3.72;1.40;;;26.40;63.10;;;;;;5031460;28;20406;-24
2022/08/12 09:53:10;;;;;;;2.78;1.35;;;26.40;63.00;;;;;;5032070;28;20053;-24
2022/08/12 09:55:40;;;;;;;5.25;1.30;;;26.50;63.00;;;;;;5032031;28;20026;-24
2022/08/12 09:58:06;;;;;;;4.13;1.30;;;26.40;62.90;;;;;;5031783;28;20024;-24
2022/08/12 10:00:33;;;;;;;3.58;1.23;;;26.40;62.90;;;;;;5032067;28;20029;-24
2022/08/12 10:03:09;;;;;;;3.45;1.30;;;26.40;63.00;;;;;;5032349;28;20411;-24
2022/08/12 10:05:45;;;;;;;3.35;1.10;;;26.40;63.00;;;;;;5032111;28;20033;-24
2022/08/12 10:08:13;;;;;;;3.65;1.55;;;26.40;62.90;;;;;;5014058;28;20391;-24
2022/08/12 10:13:41;;;;;;;3.88;1.30;;;26.50;63.00;;;;;;5032012;28;20040;-24
2022/08/12 10:16:18;;;;;;;3.35;1.30;;;26.40;62.90;;;;;;5031839;28;20026;-24
2022/08/12 10:18:49;;;;;;;4.00;1.10;;;26.40;62.90;;;;;;5031998;28;20045;-24
2022/08/12 10:21:17;;;;;;;4.97;1.10;;;26.40;63.70;;;;;;5013616;28;20495;-24
2022/08/12 10:23:45;;;;;;;2.33;1.20;;;26.50;63.00;;;;;;5031795;28;20139;-24
2022/08/12 10:31:50;;;;;;;2.10;1.30;;;26.50;63.00;;;;;;5031707;28;20037;-24
2022/08/12 10:34:16;;;;;;;2.65;1.35;;;26.50;62.90;;;;;;5031711;28;20502;-24
2022/08/12 10:36:43;;;;;;;1.90;1.08;;;26.50;62.90;;;;;;5032041;28;20053;-24
2022/08/12 10:39:14;;;;;;;2.03;1.10;;;26.50;62.80;;;;;;5031580;28;20027;-24
2022/08/12 10:44:25;;;;;;;2.35;1.35;;;26.60;62.90;;;;;;5035377;28;20036;-24
2022/08/12 10:46:51;;;;;;;1.90;1.10;;;26.60;62.90;;;;;;5035232;28;20032;-25
2022/08/12 10:49:18;;;;;;;2.33;1.10;;;26.60;62.80;;;;;;5035280;28;20021;-24
2022/08/12 10:51:48;;;;;;;2.10;1.13;;;26.70;62.90;;;;;;5034930;28;20041;-25
2022/08/12 10:54:15;;;;;;;1.88;1.10;;;26.70;62.90;;;;;;5035075;28;20026;-25
2022/08/12 10:56:44;;;;;;;2.58;1.10;;;26.70;62.80;;;;;;5034880;28;20037;-25
2022/08/12 10:59:10;;;;;;;3.05;1.10;;;26.70;62.80;;;;;;5034826;28;20025;-25
2022/08/12 11:01:35;;;;;;;3.60;1.10;;;26.70;62.80;;;;;;5034722;28;20528;-25
2022/08/12 11:04:03;;;;;;;2.58;1.17;;;26.70;62.80;;;;;;5034895;28;20029;-25
2022/08/12 11:06:29;;;;;;;2.10;1.10;;;26.70;62.80;;;;;;5034827;28;20391;-24
2022/08/12 11:08:55;;;;;;;2.17;1.10;;;26.70;62.70;;;;;;5034544;28;20021;-24
2022/08/12 11:11:22;;;;;;;2.13;1.10;;;26.70;62.80;;;;;;5034490;28;20041;-24
2022/08/12 11:13:47;;;;;;;3.72;1.15;;;26.70;62.70;;;;;;5034732;28;20533;-24
2022/08/12 11:16:15;;;;;;;3.00;1.15;;;26.80;62.80;;;;;;5034662;28;20061;-24
2022/08/12 11:18:41;;;;;;;2.08;1.13;;;26.80;62.80;;;;;;5034425;28;20100;-24
2022/08/12 11:21:06;;;;;;;1.75;0.90;;;26.80;62.70;;;;;;5034445;28;20551;-25
2022/08/12 11:23:32;;;;;;;2.17;0.90;;;26.80;62.70;;;;;;5034428;28;20152;-24
2022/08/12 11:25:58;;;;;;;2.30;1.33;;;26.80;62.70;;;;;;5034436;28;20597;-24
2022/08/12 11:28:23;;;;;;;2.97;1.02;;;26.90;62.70;;;;;;5034436;28;20069;-24
2022/08/12 11:30:49;;;;;;;2.33;1.33;;;26.90;62.60;;;;;;5034388;28;20029;-25
2022/08/12 11:33:15;;;;;;;1.90;1.13;;;26.90;62.60;;;;;;5034408;28;20508;-24
2022/08/12 11:35:42;;;;;;;1.42;1.13;;;26.90;62.60;;;;;;5034356;28;20376;-24
2022/08/12 11:38:08;;;;;;;1.13;0.90;;;26.90;62.60;;;;;;5016448;28;20105;-25
2022/08/12 11:40:34;;;;;;;3.33;0.90;;;26.90;62.60;;;;;;5033850;28;20018;-25
2022/08/12 11:43:00;;;;;;;1.55;1.08;;;26.90;63.40;;;;;;5034198;28;20029;-24
2022/08/12 11:45:29;;;;;;;2.15;1.00;;;26.90;62.60;;;;;;5034239;28;20029;-24
2022/08/12 11:47:58;;;;;;;1.67;1.00;;;26.90;62.70;;;;;;5033989;28;20037;-25
2022/08/12 11:52:53;;;;;;;1.98;0.90;;;26.90;62.90;;;;;;5011787;28;20057;-26
2022/08/12 11:55:19;;;;;;;2.95;1.10;;;26.80;62.90;;;;;;5013941;28;20029;-26
2022/08/12 11:57:56;;;;;;;3.75;1.00;;;26.80;63.00;;;;;;5013960;28;20053;-26
2022/08/12 12:00:22;;;;;;;3.80;1.10;;;26.90;59.70;;;;;;5013842;28;20086;-26
2022/08/12 12:02:48;;;;;;;3.92;1.40;;;26.80;58.80;;;;;;5013924;28;20033;-26
2022/08/12 12:05:15;;;;;;;2.40;1.05;;;26.90;59.20;;;;;;5013897;28;20478;-26
2022/08/12 12:07:42;;;;;;;4.80;1.48;;;26.90;59.50;;;;;;5014043;28;20033;-26
2022/08/12 12:10:10;;;;;;;5.05;1.20;;;26.90;59.70;;;;;;5013667;28;20053;-26
2022/08/12 12:12:35;;;;;;;8.55;1.13;;;26.90;59.80;;;;;;5013820;28;20072;-26
2022/08/12 12:15:02;;;;;;;1.40;1.00;;;26.90;60.00;;;;;;5013856;28;20030;-26
2022/08/12 12:17:28;;;;;;;3.08;1.10;;;26.90;60.10;;;;;;5013765;28;20036;-26
2022/08/12 12:19:54;;;;;;;2.90;1.20;;;26.90;60.30;;;;;;5013460;28;20029;-26
2022/08/12 12:22:20;;;;;;;3.13;1.13;;;26.90;60.40;;;;;;5013495;28;20088;-26
2022/08/12 12:24:49;;;;;;;3.47;1.15;;;27.00;60.60;;;;;;5013637;28;20026;-27
2022/08/12 12:27:19;;;;;;;4.18;1.02;;;26.90;60.60;;;;;;5013776;28;20026;-26
2022/08/12 12:29:45;;;;;;;1.58;1.00;;;26.90;60.70;;;;;;5013457;28;20475;-26
2022/08/12 12:32:10;;;;;;;3.30;1.08;;;26.90;60.80;;;;;;5013374;28;20060;-26
2022/08/12 12:34:36;;;;;;;3.08;0.93;;;27.00;60.90;;;;;;5013457;28;20040;-26
2022/08/12 12:37:03;;;;;;;3.92;1.60;;;26.90;61.20;;;;;;5013403;28;20498;-26
2022/08/12 12:39:28;;;;;;;3.42;1.05;;;27.00;60.90;;;;;;5013274;28;20042;-26
2022/08/12 12:41:54;;;;;;;2.15;1.05;;;27.00;61.00;;;;;;5013094;28;20149;-26
2022/08/12 12:44:20;;;;;;;2.90;1.02;;;27.00;61.10;;;;;;5013254;28;20061;-26
2022/08/12 12:46:45;;;;;;;1.55;1.00;;;27.00;61.10;;;;;;5013119;28;20110;-26
2022/08/12 12:49:11;;;;;;;1.65;0.95;;;27.00;61.20;;;;;;5013053;28;20553;-26
2022/08/12 12:51:37;;;;;;;1.25;0.98;;;27.00;61.20;;;;;;5013195;28;20328;-26
2022/08/12 12:54:03;;;;;;;1.95;1.27;;;27.00;61.30;;;;;;5013175;28;20022;-26
2022/08/12 12:56:30;;;;;;;2.53;1.08;;;27.00;61.30;;;;;;5013076;28;20026;-26
2022/08/12 12:58:56;;;;;;;1.67;0.93;;;27.00;61.30;;;;;;5012868;28;20029;-26
2022/08/12 13:01:26;;;;;;;1.40;1.00;;;27.00;61.30;;;;;;5012694;28;20029;-25
2022/08/12 13:03:57;;;;;;;1.23;0.98;;;27.00;61.40;;;;;;5012347;28;20021;-26
2022/08/12 13:06:28;;;;;;;1.77;1.05;;;27.00;61.40;;;;;;5012935;28;20030;-26
2022/08/12 13:08:55;;;;;;;1.05;0.85;;;27.00;61.40;;;;;;5012673;28;20037;-26
2022/08/12 13:11:21;;;;;;;1.63;0.90;;;27.00;61.50;;;;;;5012725;28;20022;-26
2022/08/12 13:13:52;;;;;;;1.13;0.90;;;27.00;61.50;;;;;;5012781;28;20491;-26
2022/08/12 13:16:21;;;;;;;2.10;1.10;;;27.00;61.40;;;;;;5012732;28;20051;-26
2022/08/12 13:18:49;;;;;;;2.45;1.00;;;27.00;61.40;;;;;;5012596;28;20026;-26
2022/08/12 13:21:16;;;;;;;3.28;0.73;;;27.00;61.40;;;;;;5012575;28;20044;-26
2022/08/12 13:23:46;;;;;;;2.08;1.15;;;27.00;61.50;;;;;;5012497;28;20022;-26
2022/08/12 13:26:13;;;;;;;1.88;1.00;;;27.00;61.50;;;;;;5012592;28;20054;-26
2022/08/12 13:28:44;;;;;;;2.80;1.13;;;27.00;61.60;;;;;;5012249;28;20029;-26
2022/08/12 13:31:11;;;;;;;3.40;0.80;;;27.00;61.60;;;;;;5012366;28;20022;-26
2022/08/12 13:33:37;;;;;;;1.95;0.95;;;27.00;62.50;;;;;;5012466;28;20037;-26
2022/08/12 13:36:03;;;;;;;1.40;0.98;;;27.00;61.80;;;;;;5012339;28;20037;-26
2022/08/12 13:38:40;;;;;;;1.10;0.98;;;26.90;61.70;;;;;;5012599;28;20030;-26
2022/08/12 13:41:07;;;;;;;1.42;1.00;;;27.00;61.80;;;;;;5012066;28;20034;-26
2022/08/12 13:43:33;;;;;;;2.75;0.90;;;27.00;61.80;;;;;;5012267;28;20056;-26
2022/08/12 13:46:00;;;;;;;1.33;0.88;;;26.90;61.70;;;;;;5012333;28;20022;-26
2022/08/12 13:48:26;;;;;;;1.35;1.10;;;27.00;61.90;;;;;;5012210;28;20073;-26
2022/08/12 13:50:52;;;;;;;1.42;0.90;;;27.00;61.80;;;;;;5011946;28;20029;-26
2022/08/12 13:53:18;;;;;;;1.30;0.90;;;27.00;61.90;;;;;;5012249;28;20177;-26
2022/08/12 13:55:48;;;;;;;1.00;0.70;;;27.00;61.90;;;;;;5012174;28;20025;-26
2022/08/12 13:58:16;;;;;;;1.38;0.98;;;26.90;61.90;;;;;;5012074;28;20051;-26
2022/08/12 14:00:45;;;;;;;1.17;0.80;;;27.00;61.90;;;;;;5011924;28;20026;-26
2022/08/12 14:03:15;;;;;;;2.15;0.80;;;26.90;61.90;;;;;;4994566;28;20034;-26
2022/08/12 14:05:41;;;;;;;1.23;0.90;;;27.00;61.90;;;;;;5012168;28;20018;-26
2022/08/12 14:08:09;;;;;;;3.72;1.00;;;27.00;61.90;;;;;;5011914;28;20109;-26
2022/08/12 14:10:38;;;;;;;2.15;1.27;;;27.00;61.90;;;;;;5011846;28;20048;-26
2022/08/12 14:13:08;;;;;;;1.38;0.80;;;27.00;61.90;;;;;;5012302;28;20029;-26
2022/08/12 14:15:41;;;;;;;1.73;1.00;;;27.10;61.90;;;;;;5016088;28;20572;-26
2022/08/12 14:18:06;;;;;;;2.13;0.95;;;27.00;61.80;;;;;;5016017;28;20426;-26
2022/08/12 14:20:32;;;;;;;2.47;0.90;;;27.00;61.80;;;;;;5015628;28;20495;-26
2022/08/12 14:22:58;;;;;;;2.83;0.90;;;27.10;61.90;;;;;;5015671;28;20426;-26
2022/08/12 14:25:27;;;;;;;1.70;0.80;;;27.10;62.70;;;;;;5015933;28;20109;-27
2022/08/12 14:27:54;;;;;;;1.60;0.80;;;27.10;61.90;;;;;;5015783;28;20017;-27
2022/08/12 14:30:21;;;;;;;1.00;0.82;;;27.10;61.90;;;;;;4997899;28;20022;-26
2022/08/12 14:32:46;;;;;;;1.23;0.70;;;27.10;61.90;;;;;;5015626;28;20030;-26
2022/08/12 14:35:12;;;;;;;4.47;0.85;;;27.10;61.90;;;;;;5015568;28;20026;-26
2022/08/12 14:37:39;;;;;;;1.10;0.80;;;27.10;61.90;;;;;;5015771;28;20474;-26
2022/08/12 14:40:06;;;;;;;1.63;1.00;;;27.10;61.90;;;;;;5015397;28;20064;-26
2022/08/12 14:42:31;;;;;;;1.70;1.10;;;27.10;61.80;;;;;;5015431;28;20545;-26
2022/08/12 14:44:57;;;;;;;1.00;0.90;;;27.20;61.90;;;;;;5015486;28;20026;-26